sensor_id;sensor_type;location;lat;lon;timestamp;P1;durP1;ratioP1;P2;durP2;ratioP2
568;SDS011;269;48.884;9.192;2022-10-16T00:00:45;2.47;;;2.10;;
568;SDS011;269;48.884;9.192;2022-10-16T00:03:12;2.67;;;2.47;;
568;SDS011;269;48.884;9.192;2022-10-16T00:05:40;2.07;;;1.97;;
568;SDS011;269;48.884;9.192;2022-10-16T00:08:09;2.50;;;2.30;;
568;SDS011;269;48.884;9.192;2022-10-16T00:10:37;3.33;;;2.23;;
568;SDS011;269;48.884;9.192;2022-10-16T00:13:05;2.20;;;2.00;;
568;SDS011;269;48.884;9.192;2022-10-16T00:15:32;2.40;;;2.20;;
568;SDS011;269;48.884;9.192;2022-10-16T00:18:03;2.10;;;2.00;;
568;SDS011;269;48.884;9.192;2022-10-16T00:20:33;2.00;;;1.90;;
568;SDS011;269;48.884;9.192;2022-10-16T00:23:02;2.47;;;2.07;;
568;SDS011;269;48.884;9.192;2022-10-16T00:25:29;2.63;;;2.07;;
568;SDS011;269;48.884;9.192;2022-10-16T00:27:58;2.10;;;1.90;;
568;SDS011;269;48.884;9.192;2022-10-16T00:30:25;2.80;;;2.23;;
568;SDS011;269;48.884;9.192;2022-10-16T00:32:54;3.40;;;2.17;;
568;SDS011;269;48.884;9.192;2022-10-16T00:35:23;2.53;;;2.20;;
568;SDS011;269;48.884;9.192;2022-10-16T00:37:50;2.70;;;2.00;;
568;SDS011;269;48.884;9.192;2022-10-16T00:40:17;2.03;;;1.70;;
568;SDS011;269;48.884;9.192;2022-10-16T00:42:45;4.17;;;1.87;;
568;SDS011;269;48.884;9.192;2022-10-16T00:45:12;2.20;;;1.87;;
568;SDS011;269;48.884;9.192;2022-10-16T00:47:40;2.97;;;2.20;;
568;SDS011;269;48.884;9.192;2022-10-16T00:50:13;2.63;;;2.27;;
568;SDS011;269;48.884;9.192;2022-10-16T00:52:48;2.40;;;2.20;;
568;SDS011;269;48.884;9.192;2022-10-16T00:55:17;3.53;;;1.83;;
568;SDS011;269;48.884;9.192;2022-10-16T00:57:45;2.27;;;2.07;;
568;SDS011;269;48.884;9.192;2022-10-16T01:00:14;1.80;;;1.70;;
568;SDS011;269;48.884;9.192;2022-10-16T01:02:51;2.00;;;1.90;;
568;SDS011;269;48.884;9.192;2022-10-16T01:05:20;2.37;;;2.03;;
568;SDS011;269;48.884;9.192;2022-10-16T01:07:53;2.40;;;2.20;;
568;SDS011;269;48.884;9.192;2022-10-16T01:10:27;2.33;;;2.13;;
568;SDS011;269;48.884;9.192;2022-10-16T01:13:03;2.10;;;1.90;;
568;SDS011;269;48.884;9.192;2022-10-16T01:15:34;2.03;;;1.93;;
568;SDS011;269;48.884;9.192;2022-10-16T01:18:05;2.40;;;2.20;;
568;SDS011;269;48.884;9.192;2022-10-16T01:20:38;3.20;;;2.10;;
568;SDS011;269;48.884;9.192;2022-10-16T01:23:18;2.87;;;2.23;;
568;SDS011;269;48.884;9.192;2022-10-16T01:25:58;2.23;;;1.83;;
568;SDS011;269;48.884;9.192;2022-10-16T01:28:42;3.00;;;1.97;;
568;SDS011;269;48.884;9.192;2022-10-16T01:31:16;2.47;;;1.60;;
568;SDS011;269;48.884;9.192;2022-10-16T01:33:51;1.90;;;1.77;;
568;SDS011;269;48.884;9.192;2022-10-16T01:36:24;2.20;;;1.90;;
568;SDS011;269;48.884;9.192;2022-10-16T01:38:56;2.33;;;2.00;;
568;SDS011;269;48.884;9.192;2022-10-16T01:41:29;2.07;;;1.87;;
568;SDS011;269;48.884;9.192;2022-10-16T01:44:01;2.57;;;1.90;;
568;SDS011;269;48.884;9.192;2022-10-16T01:46:31;2.87;;;2.27;;
568;SDS011;269;48.884;9.192;2022-10-16T01:49:01;2.73;;;2.00;;
568;SDS011;269;48.884;9.192;2022-10-16T01:51:29;2.97;;;2.53;;
568;SDS011;269;48.884;9.192;2022-10-16T01:53:58;2.07;;;1.87;;
568;SDS011;269;48.884;9.192;2022-10-16T01:56:27;1.90;;;1.80;;
568;SDS011;269;48.884;9.192;2022-10-16T01:58:57;3.47;;;2.20;;
568;SDS011;269;48.884;9.192;2022-10-16T02:01:30;2.50;;;2.30;;
568;SDS011;269;48.884;9.192;2022-10-16T02:04:02;2.20;;;2.00;;
568;SDS011;269;48.884;9.192;2022-10-16T02:06:34;4.80;;;2.37;;
568;SDS011;269;48.884;9.192;2022-10-16T02:09:01;2.33;;;1.80;;
568;SDS011;269;48.884;9.192;2022-10-16T02:11:29;3.27;;;2.60;;
568;SDS011;269;48.884;9.192;2022-10-16T02:13:58;3.47;;;1.87;;
568;SDS011;269;48.884;9.192;2022-10-16T02:16:36;3.23;;;2.13;;
568;SDS011;269;48.884;9.192;2022-10-16T02:19:05;3.27;;;2.13;;
568;SDS011;269;48.884;9.192;2022-10-16T02:21:33;3.47;;;2.10;;
568;SDS011;269;48.884;9.192;2022-10-16T02:24:11;1.90;;;1.80;;
568;SDS011;269;48.884;9.192;2022-10-16T02:26:45;2.40;;;2.20;;
568;SDS011;269;48.884;9.192;2022-10-16T02:29:19;2.30;;;2.10;;
568;SDS011;269;48.884;9.192;2022-10-16T02:31:53;2.80;;;2.03;;
568;SDS011;269;48.884;9.192;2022-10-16T02:34:25;3.70;;;1.93;;
568;SDS011;269;48.884;9.192;2022-10-16T02:36:54;2.87;;;2.23;;
568;SDS011;269;48.884;9.192;2022-10-16T02:39:23;2.50;;;2.20;;
568;SDS011;269;48.884;9.192;2022-10-16T02:41:51;2.70;;;2.17;;
568;SDS011;269;48.884;9.192;2022-10-16T02:44:18;2.70;;;1.87;;
568;SDS011;269;48.884;9.192;2022-10-16T02:46:45;2.40;;;2.10;;
568;SDS011;269;48.884;9.192;2022-10-16T02:49:14;2.30;;;2.10;;
568;SDS011;269;48.884;9.192;2022-10-16T02:51:41;2.20;;;2.00;;
568;SDS011;269;48.884;9.192;2022-10-16T02:54:08;2.37;;;2.17;;
568;SDS011;269;48.884;9.192;2022-10-16T02:56:36;3.80;;;2.53;;
568;SDS011;269;48.884;9.192;2022-10-16T02:59:03;3.03;;;2.20;;
568;SDS011;269;48.884;9.192;2022-10-16T03:01:30;2.50;;;2.00;;
568;SDS011;269;48.884;9.192;2022-10-16T03:03:57;1.93;;;1.80;;
568;SDS011;269;48.884;9.192;2022-10-16T03:06:26;3.03;;;2.70;;
568;SDS011;269;48.884;9.192;2022-10-16T03:08:53;2.23;;;2.03;;
568;SDS011;269;48.884;9.192;2022-10-16T03:11:20;2.33;;;2.13;;
568;SDS011;269;48.884;9.192;2022-10-16T03:13:48;3.83;;;2.40;;
568;SDS011;269;48.884;9.192;2022-10-16T03:16:15;4.00;;;2.83;;
568;SDS011;269;48.884;9.192;2022-10-16T03:18:42;2.37;;;2.00;;
568;SDS011;269;48.884;9.192;2022-10-16T03:21:10;2.40;;;2.20;;
568;SDS011;269;48.884;9.192;2022-10-16T03:23:39;2.60;;;2.40;;
568;SDS011;269;48.884;9.192;2022-10-16T03:26:06;4.10;;;2.20;;
568;SDS011;269;48.884;9.192;2022-10-16T03:28:33;4.70;;;2.20;;
568;SDS011;269;48.884;9.192;2022-10-16T03:31:00;2.10;;;1.90;;
568;SDS011;269;48.884;9.192;2022-10-16T03:33:28;3.03;;;2.50;;
568;SDS011;269;48.884;9.192;2022-10-16T03:35:55;2.57;;;2.10;;
568;SDS011;269;48.884;9.192;2022-10-16T03:38:23;2.57;;;2.20;;
568;SDS011;269;48.884;9.192;2022-10-16T03:40:52;2.00;;;1.90;;
568;SDS011;269;48.884;9.192;2022-10-16T03:43:19;3.10;;;2.17;;
568;SDS011;269;48.884;9.192;2022-10-16T03:45:46;4.03;;;2.27;;
568;SDS011;269;48.884;9.192;2022-10-16T03:48:13;2.07;;;1.97;;
568;SDS011;269;48.884;9.192;2022-10-16T03:50:40;2.60;;;2.40;;
568;SDS011;269;48.884;9.192;2022-10-16T03:53:07;2.40;;;2.20;;
568;SDS011;269;48.884;9.192;2022-10-16T03:55:35;2.60;;;2.40;;
568;SDS011;269;48.884;9.192;2022-10-16T03:58:04;2.90;;;2.40;;
568;SDS011;269;48.884;9.192;2022-10-16T04:00:31;2.77;;;2.07;;
568;SDS011;269;48.884;9.192;2022-10-16T04:03:00;2.80;;;2.07;;
568;SDS011;269;48.884;9.192;2022-10-16T04:05:27;3.20;;;2.33;;
568;SDS011;269;48.884;9.192;2022-10-16T04:07:54;2.10;;;1.90;;
568;SDS011;269;48.884;9.192;2022-10-16T04:10:21;2.63;;;2.20;;
568;SDS011;269;48.884;9.192;2022-10-16T04:12:48;3.93;;;2.20;;
568;SDS011;269;48.884;9.192;2022-10-16T04:15:16;2.07;;;1.87;;
568;SDS011;269;48.884;9.192;2022-10-16T04:17:44;2.40;;;2.07;;
568;SDS011;269;48.884;9.192;2022-10-16T04:20:11;2.27;;;2.10;;
568;SDS011;269;48.884;9.192;2022-10-16T04:22:38;2.77;;;1.97;;
568;SDS011;269;48.884;9.192;2022-10-16T04:25:06;4.17;;;2.37;;
568;SDS011;269;48.884;9.192;2022-10-16T04:27:34;2.27;;;2.07;;
568;SDS011;269;48.884;9.192;2022-10-16T04:30:01;2.70;;;2.20;;
568;SDS011;269;48.884;9.192;2022-10-16T04:32:32;3.07;;;2.20;;
568;SDS011;269;48.884;9.192;2022-10-16T04:35:00;2.53;;;2.30;;
568;SDS011;269;48.884;9.192;2022-10-16T04:37:29;2.47;;;2.27;;
568;SDS011;269;48.884;9.192;2022-10-16T04:39:57;2.20;;;2.00;;
568;SDS011;269;48.884;9.192;2022-10-16T04:42:24;2.60;;;2.13;;
568;SDS011;269;48.884;9.192;2022-10-16T04:44:51;4.23;;;2.20;;
568;SDS011;269;48.884;9.192;2022-10-16T04:47:18;2.10;;;1.87;;
568;SDS011;269;48.884;9.192;2022-10-16T04:49:47;4.30;;;1.97;;
568;SDS011;269;48.884;9.192;2022-10-16T04:52:14;4.53;;;2.50;;
568;SDS011;269;48.884;9.192;2022-10-16T04:54:42;4.27;;;2.10;;
568;SDS011;269;48.884;9.192;2022-10-16T04:57:10;2.07;;;1.60;;
568;SDS011;269;48.884;9.192;2022-10-16T04:59:38;3.03;;;2.30;;
568;SDS011;269;48.884;9.192;2022-10-16T05:02:05;2.20;;;2.00;;
568;SDS011;269;48.884;9.192;2022-10-16T05:04:32;2.60;;;1.80;;
568;SDS011;269;48.884;9.192;2022-10-16T05:07:01;2.60;;;2.20;;
568;SDS011;269;48.884;9.192;2022-10-16T05:09:28;2.00;;;1.80;;
568;SDS011;269;48.884;9.192;2022-10-16T05:11:56;2.63;;;2.17;;
568;SDS011;269;48.884;9.192;2022-10-16T05:14:23;3.83;;;2.00;;
568;SDS011;269;48.884;9.192;2022-10-16T05:16:50;2.80;;;1.80;;
568;SDS011;269;48.884;9.192;2022-10-16T05:19:17;4.93;;;1.77;;
568;SDS011;269;48.884;9.192;2022-10-16T05:21:45;2.00;;;1.70;;
568;SDS011;269;48.884;9.192;2022-10-16T05:24:13;4.27;;;1.70;;
568;SDS011;269;48.884;9.192;2022-10-16T05:26:41;2.30;;;1.70;;
568;SDS011;269;48.884;9.192;2022-10-16T05:29:08;3.10;;;1.80;;
568;SDS011;269;48.884;9.192;2022-10-16T05:31:36;2.03;;;1.80;;
568;SDS011;269;48.884;9.192;2022-10-16T05:34:03;1.87;;;1.77;;
568;SDS011;269;48.884;9.192;2022-10-16T05:36:31;1.90;;;1.80;;
568;SDS011;269;48.884;9.192;2022-10-16T05:38:59;2.03;;;1.83;;
568;SDS011;269;48.884;9.192;2022-10-16T05:41:28;1.93;;;1.50;;
568;SDS011;269;48.884;9.192;2022-10-16T05:43:56;1.97;;;1.80;;
568;SDS011;269;48.884;9.192;2022-10-16T05:46:24;2.40;;;2.20;;
568;SDS011;269;48.884;9.192;2022-10-16T05:48:53;2.27;;;1.70;;
568;SDS011;269;48.884;9.192;2022-10-16T05:51:20;1.93;;;1.80;;
568;SDS011;269;48.884;9.192;2022-10-16T05:53:47;2.43;;;1.73;;
568;SDS011;269;48.884;9.192;2022-10-16T05:56:16;2.80;;;1.70;;
568;SDS011;269;48.884;9.192;2022-10-16T05:58:44;2.23;;;2.03;;
568;SDS011;269;48.884;9.192;2022-10-16T06:01:12;3.60;;;2.40;;
568;SDS011;269;48.884;9.192;2022-10-16T06:03:41;3.17;;;2.20;;
568;SDS011;269;48.884;9.192;2022-10-16T06:06:09;2.70;;;2.20;;
568;SDS011;269;48.884;9.192;2022-10-16T06:08:36;2.33;;;2.13;;
568;SDS011;269;48.884;9.192;2022-10-16T06:11:04;5.63;;;2.13;;
568;SDS011;269;48.884;9.192;2022-10-16T06:13:32;3.20;;;1.90;;
568;SDS011;269;48.884;9.192;2022-10-16T06:16:01;2.53;;;2.17;;
568;SDS011;269;48.884;9.192;2022-10-16T06:18:30;3.00;;;2.30;;
568;SDS011;269;48.884;9.192;2022-10-16T06:20:57;3.07;;;2.10;;
568;SDS011;269;48.884;9.192;2022-10-16T06:23:25;3.10;;;2.43;;
568;SDS011;269;48.884;9.192;2022-10-16T06:26:03;2.80;;;2.27;;
568;SDS011;269;48.884;9.192;2022-10-16T06:28:31;2.27;;;2.00;;
568;SDS011;269;48.884;9.192;2022-10-16T06:30:58;2.33;;;2.03;;
568;SDS011;269;48.884;9.192;2022-10-16T06:33:27;6.03;;;2.10;;
568;SDS011;269;48.884;9.192;2022-10-16T06:35:59;2.33;;;2.13;;
568;SDS011;269;48.884;9.192;2022-10-16T06:38:27;2.43;;;2.20;;
568;SDS011;269;48.884;9.192;2022-10-16T06:40:54;4.87;;;2.53;;
568;SDS011;269;48.884;9.192;2022-10-16T06:43:21;3.77;;;2.40;;
568;SDS011;269;48.884;9.192;2022-10-16T06:45:52;4.50;;;2.50;;
568;SDS011;269;48.884;9.192;2022-10-16T06:48:20;5.40;;;2.10;;
568;SDS011;269;48.884;9.192;2022-10-16T06:50:56;4.20;;;2.43;;
568;SDS011;269;48.884;9.192;2022-10-16T06:53:24;2.73;;;2.47;;
568;SDS011;269;48.884;9.192;2022-10-16T06:55:52;2.30;;;2.10;;
568;SDS011;269;48.884;9.192;2022-10-16T06:58:19;2.17;;;1.97;;
568;SDS011;269;48.884;9.192;2022-10-16T07:00:47;2.47;;;2.27;;
568;SDS011;269;48.884;9.192;2022-10-16T07:03:14;2.83;;;2.33;;
568;SDS011;269;48.884;9.192;2022-10-16T07:05:42;4.77;;;2.30;;
568;SDS011;269;48.884;9.192;2022-10-16T07:08:11;2.63;;;2.20;;
568;SDS011;269;48.884;9.192;2022-10-16T07:10:38;2.27;;;2.07;;
568;SDS011;269;48.884;9.192;2022-10-16T07:13:05;2.47;;;2.00;;
568;SDS011;269;48.884;9.192;2022-10-16T07:15:33;3.03;;;2.33;;
568;SDS011;269;48.884;9.192;2022-10-16T07:18:00;3.40;;;2.00;;
568;SDS011;269;48.884;9.192;2022-10-16T07:20:27;2.40;;;2.20;;
568;SDS011;269;48.884;9.192;2022-10-16T07:22:54;4.53;;;2.40;;
568;SDS011;269;48.884;9.192;2022-10-16T07:25:24;2.43;;;2.23;;
568;SDS011;269;48.884;9.192;2022-10-16T07:27:52;2.33;;;2.10;;
568;SDS011;269;48.884;9.192;2022-10-16T07:30:22;2.07;;;1.97;;
568;SDS011;269;48.884;9.192;2022-10-16T07:32:49;2.20;;;1.90;;
568;SDS011;269;48.884;9.192;2022-10-16T07:35:16;2.13;;;2.00;;
568;SDS011;269;48.884;9.192;2022-10-16T07:37:44;3.90;;;2.37;;
568;SDS011;269;48.884;9.192;2022-10-16T07:40:11;2.57;;;2.33;;
568;SDS011;269;48.884;9.192;2022-10-16T07:42:40;2.40;;;2.20;;
568;SDS011;269;48.884;9.192;2022-10-16T07:45:08;1.93;;;1.83;;
568;SDS011;269;48.884;9.192;2022-10-16T07:47:35;3.17;;;2.00;;
568;SDS011;269;48.884;9.192;2022-10-16T07:50:02;3.33;;;2.30;;
568;SDS011;269;48.884;9.192;2022-10-16T07:52:30;3.60;;;2.67;;
568;SDS011;269;48.884;9.192;2022-10-16T07:54:57;2.27;;;2.13;;
568;SDS011;269;48.884;9.192;2022-10-16T07:57:25;2.37;;;2.20;;
568;SDS011;269;48.884;9.192;2022-10-16T07:59:53;4.10;;;2.30;;
568;SDS011;269;48.884;9.192;2022-10-16T08:02:20;2.60;;;2.40;;
568;SDS011;269;48.884;9.192;2022-10-16T08:04:48;2.73;;;2.10;;
568;SDS011;269;48.884;9.192;2022-10-16T08:07:15;4.40;;;2.57;;
568;SDS011;269;48.884;9.192;2022-10-16T08:09:42;2.87;;;2.60;;
568;SDS011;269;48.884;9.192;2022-10-16T08:12:09;3.67;;;2.30;;
568;SDS011;269;48.884;9.192;2022-10-16T08:14:37;2.53;;;2.33;;
568;SDS011;269;48.884;9.192;2022-10-16T08:17:06;3.60;;;2.20;;
568;SDS011;269;48.884;9.192;2022-10-16T08:19:33;2.40;;;2.20;;
568;SDS011;269;48.884;9.192;2022-10-16T08:22:00;3.17;;;2.33;;
568;SDS011;269;48.884;9.192;2022-10-16T08:24:27;2.20;;;1.90;;
568;SDS011;269;48.884;9.192;2022-10-16T08:26:56;2.83;;;1.80;;
568;SDS011;269;48.884;9.192;2022-10-16T08:29:23;4.00;;;1.83;;
568;SDS011;269;48.884;9.192;2022-10-16T08:31:50;2.17;;;1.77;;
568;SDS011;269;48.884;9.192;2022-10-16T08:34:19;3.80;;;1.80;;
568;SDS011;269;48.884;9.192;2022-10-16T08:36:46;2.97;;;2.03;;
568;SDS011;269;48.884;9.192;2022-10-16T08:39:13;5.40;;;2.07;;
568;SDS011;269;48.884;9.192;2022-10-16T08:42:03;3.37;;;2.37;;
568;SDS011;269;48.884;9.192;2022-10-16T08:44:55;2.30;;;2.10;;
568;SDS011;269;48.884;9.192;2022-10-16T08:47:45;1.93;;;1.83;;
568;SDS011;269;48.884;9.192;2022-10-16T08:50:19;2.20;;;2.00;;
568;SDS011;269;48.884;9.192;2022-10-16T08:52:50;3.60;;;1.80;;
568;SDS011;269;48.884;9.192;2022-10-16T08:55:24;2.70;;;2.07;;
568;SDS011;269;48.884;9.192;2022-10-16T08:57:57;2.00;;;1.90;;
568;SDS011;269;48.884;9.192;2022-10-16T09:00:25;2.27;;;1.43;;
568;SDS011;269;48.884;9.192;2022-10-16T09:02:56;5.07;;;2.00;;
568;SDS011;269;48.884;9.192;2022-10-16T09:05:41;3.93;;;2.03;;
568;SDS011;269;48.884;9.192;2022-10-16T09:08:17;2.47;;;2.00;;
568;SDS011;269;48.884;9.192;2022-10-16T09:10:55;1.70;;;1.60;;
568;SDS011;269;48.884;9.192;2022-10-16T09:13:27;3.33;;;2.07;;
568;SDS011;269;48.884;9.192;2022-10-16T09:15:59;2.10;;;1.50;;
568;SDS011;269;48.884;9.192;2022-10-16T09:18:38;4.33;;;1.90;;
568;SDS011;269;48.884;9.192;2022-10-16T09:21:13;2.00;;;1.80;;
568;SDS011;269;48.884;9.192;2022-10-16T09:23:42;2.57;;;1.90;;
568;SDS011;269;48.884;9.192;2022-10-16T09:26:11;1.90;;;1.73;;
568;SDS011;269;48.884;9.192;2022-10-16T09:28:40;2.13;;;2.03;;
568;SDS011;269;48.884;9.192;2022-10-16T09:31:10;2.17;;;1.70;;
568;SDS011;269;48.884;9.192;2022-10-16T09:33:42;3.63;;;1.80;;
568;SDS011;269;48.884;9.192;2022-10-16T09:36:09;3.00;;;1.50;;
568;SDS011;269;48.884;9.192;2022-10-16T09:38:39;1.70;;;1.60;;
568;SDS011;269;48.884;9.192;2022-10-16T09:41:12;3.87;;;1.90;;
568;SDS011;269;48.884;9.192;2022-10-16T09:43:46;2.10;;;1.60;;
568;SDS011;269;48.884;9.192;2022-10-16T09:46:22;1.60;;;1.50;;
568;SDS011;269;48.884;9.192;2022-10-16T09:48:53;3.77;;;1.73;;
568;SDS011;269;48.884;9.192;2022-10-16T09:51:24;2.97;;;1.50;;
568;SDS011;269;48.884;9.192;2022-10-16T09:53:55;3.53;;;2.43;;
568;SDS011;269;48.884;9.192;2022-10-16T09:56:25;1.50;;;1.40;;
568;SDS011;269;48.884;9.192;2022-10-16T09:58:53;3.13;;;1.63;;
568;SDS011;269;48.884;9.192;2022-10-16T10:01:22;2.07;;;1.50;;
568;SDS011;269;48.884;9.192;2022-10-16T10:03:55;2.60;;;1.53;;
568;SDS011;269;48.884;9.192;2022-10-16T10:06:29;2.67;;;1.73;;
568;SDS011;269;48.884;9.192;2022-10-16T10:09:00;2.10;;;1.90;;
568;SDS011;269;48.884;9.192;2022-10-16T10:14:26;2.63;;;1.77;;
568;SDS011;269;48.884;9.192;2022-10-16T10:17:07;1.67;;;1.47;;
568;SDS011;269;48.884;9.192;2022-10-16T10:19:39;2.63;;;1.70;;
568;SDS011;269;48.884;9.192;2022-10-16T10:22:15;4.33;;;1.60;;
568;SDS011;269;48.884;9.192;2022-10-16T10:24:55;4.20;;;1.60;;
568;SDS011;269;48.884;9.192;2022-10-16T10:27:25;2.90;;;1.50;;
568;SDS011;269;48.884;9.192;2022-10-16T10:30:03;2.50;;;1.70;;
568;SDS011;269;48.884;9.192;2022-10-16T10:32:36;1.80;;;1.70;;
568;SDS011;269;48.884;9.192;2022-10-16T10:35:14;1.63;;;1.53;;
568;SDS011;269;48.884;9.192;2022-10-16T10:40:36;1.77;;;1.50;;
568;SDS011;269;48.884;9.192;2022-10-16T10:43:12;1.73;;;1.63;;
568;SDS011;269;48.884;9.192;2022-10-16T10:45:48;1.70;;;1.50;;
568;SDS011;269;48.884;9.192;2022-10-16T10:48:42;2.77;;;1.50;;
568;SDS011;269;48.884;9.192;2022-10-16T10:51:30;2.30;;;2.10;;
568;SDS011;269;48.884;9.192;2022-10-16T10:54:12;2.97;;;1.80;;
568;SDS011;269;48.884;9.192;2022-10-16T10:56:49;2.80;;;1.70;;
568;SDS011;269;48.884;9.192;2022-10-16T11:02:26;2.30;;;1.83;;
568;SDS011;269;48.884;9.192;2022-10-16T11:08:08;2.07;;;1.47;;
568;SDS011;269;48.884;9.192;2022-10-16T11:10:44;1.60;;;1.40;;
568;SDS011;269;48.884;9.192;2022-10-16T11:13:17;1.60;;;1.50;;
568;SDS011;269;48.884;9.192;2022-10-16T11:15:52;1.63;;;1.53;;
568;SDS011;269;48.884;9.192;2022-10-16T11:18:24;3.83;;;1.37;;
568;SDS011;269;48.884;9.192;2022-10-16T11:20:57;2.13;;;1.73;;
568;SDS011;269;48.884;9.192;2022-10-16T11:23:30;1.60;;;1.50;;
568;SDS011;269;48.884;9.192;2022-10-16T11:26:02;1.60;;;1.40;;
568;SDS011;269;48.884;9.192;2022-10-16T11:28:40;1.70;;;1.60;;
568;SDS011;269;48.884;9.192;2022-10-16T11:31:13;2.53;;;1.37;;
568;SDS011;269;48.884;9.192;2022-10-16T11:33:45;2.53;;;2.20;;
568;SDS011;269;48.884;9.192;2022-10-16T11:36:16;1.67;;;1.50;;
568;SDS011;269;48.884;9.192;2022-10-16T11:38:48;1.40;;;1.30;;
568;SDS011;269;48.884;9.192;2022-10-16T11:41:24;2.00;;;1.50;;
568;SDS011;269;48.884;9.192;2022-10-16T11:44:02;2.57;;;1.40;;
568;SDS011;269;48.884;9.192;2022-10-16T11:46:36;2.10;;;1.60;;
568;SDS011;269;48.884;9.192;2022-10-16T11:49:08;1.60;;;1.50;;
568;SDS011;269;48.884;9.192;2022-10-16T11:51:40;1.50;;;1.40;;
568;SDS011;269;48.884;9.192;2022-10-16T11:54:14;2.27;;;1.40;;
568;SDS011;269;48.884;9.192;2022-10-16T11:56:49;1.73;;;1.47;;
568;SDS011;269;48.884;9.192;2022-10-16T11:59:21;1.63;;;1.30;;
568;SDS011;269;48.884;9.192;2022-10-16T12:01:59;2.07;;;1.50;;
568;SDS011;269;48.884;9.192;2022-10-16T12:04:42;1.47;;;1.30;;
568;SDS011;269;48.884;9.192;2022-10-16T12:07:14;1.97;;;1.40;;
568;SDS011;269;48.884;9.192;2022-10-16T12:09:44;3.63;;;1.47;;
568;SDS011;269;48.884;9.192;2022-10-16T12:12:25;1.43;;;1.33;;
568;SDS011;269;48.884;9.192;2022-10-16T12:15:00;2.50;;;1.40;;
568;SDS011;269;48.884;9.192;2022-10-16T12:17:34;2.80;;;1.90;;
568;SDS011;269;48.884;9.192;2022-10-16T12:20:18;1.80;;;1.70;;
568;SDS011;269;48.884;9.192;2022-10-16T12:22:49;1.40;;;1.30;;
568;SDS011;269;48.884;9.192;2022-10-16T12:25:21;3.33;;;1.37;;
568;SDS011;269;48.884;9.192;2022-10-16T12:30:52;1.53;;;1.43;;
568;SDS011;269;48.884;9.192;2022-10-16T12:33:21;1.60;;;1.50;;
568;SDS011;269;48.884;9.192;2022-10-16T12:35:50;1.87;;;1.20;;
568;SDS011;269;48.884;9.192;2022-10-16T12:38:19;1.50;;;1.30;;
568;SDS011;269;48.884;9.192;2022-10-16T12:40:54;4.13;;;1.60;;
568;SDS011;269;48.884;9.192;2022-10-16T12:43:27;3.20;;;1.57;;
568;SDS011;269;48.884;9.192;2022-10-16T12:46:03;1.57;;;1.30;;
568;SDS011;269;48.884;9.192;2022-10-16T12:48:32;2.20;;;1.50;;
568;SDS011;269;48.884;9.192;2022-10-16T12:51:09;1.73;;;1.30;;
568;SDS011;269;48.884;9.192;2022-10-16T12:53:38;1.93;;;1.40;;
568;SDS011;269;48.884;9.192;2022-10-16T12:56:09;1.73;;;1.50;;
568;SDS011;269;48.884;9.192;2022-10-16T12:58:47;1.80;;;1.47;;
568;SDS011;269;48.884;9.192;2022-10-16T13:01:31;2.10;;;1.60;;
568;SDS011;269;48.884;9.192;2022-10-16T13:04:10;2.27;;;1.80;;
568;SDS011;269;48.884;9.192;2022-10-16T13:07:15;1.97;;;1.50;;
568;SDS011;269;48.884;9.192;2022-10-16T13:10:06;1.67;;;1.50;;
568;SDS011;269;48.884;9.192;2022-10-16T13:12:50;2.40;;;1.50;;
568;SDS011;269;48.884;9.192;2022-10-16T13:15:37;1.70;;;1.50;;
568;SDS011;269;48.884;9.192;2022-10-16T13:18:19;1.53;;;1.30;;
568;SDS011;269;48.884;9.192;2022-10-16T13:20:56;1.60;;;1.40;;
568;SDS011;269;48.884;9.192;2022-10-16T13:23:31;1.20;;;1.10;;
568;SDS011;269;48.884;9.192;2022-10-16T13:26:09;1.30;;;1.20;;
568;SDS011;269;48.884;9.192;2022-10-16T13:28:44;1.47;;;1.37;;
568;SDS011;269;48.884;9.192;2022-10-16T13:31:15;1.67;;;1.57;;
568;SDS011;269;48.884;9.192;2022-10-16T13:33:47;1.73;;;1.60;;
568;SDS011;269;48.884;9.192;2022-10-16T13:36:18;2.83;;;1.40;;
568;SDS011;269;48.884;9.192;2022-10-16T13:38:47;1.73;;;1.50;;
568;SDS011;269;48.884;9.192;2022-10-16T13:41:15;3.17;;;1.63;;
568;SDS011;269;48.884;9.192;2022-10-16T13:43:46;2.27;;;1.70;;
568;SDS011;269;48.884;9.192;2022-10-16T13:46:17;3.33;;;1.70;;
568;SDS011;269;48.884;9.192;2022-10-16T13:48:55;1.60;;;1.50;;
568;SDS011;269;48.884;9.192;2022-10-16T13:51:25;1.73;;;1.53;;
568;SDS011;269;48.884;9.192;2022-10-16T13:53:52;2.17;;;1.67;;
568;SDS011;269;48.884;9.192;2022-10-16T13:56:22;1.83;;;1.70;;
568;SDS011;269;48.884;9.192;2022-10-16T13:58:59;2.03;;;1.70;;
568;SDS011;269;48.884;9.192;2022-10-16T14:01:28;1.70;;;1.60;;
568;SDS011;269;48.884;9.192;2022-10-16T14:04:01;1.40;;;1.30;;
568;SDS011;269;48.884;9.192;2022-10-16T14:06:31;3.60;;;1.57;;
568;SDS011;269;48.884;9.192;2022-10-16T14:09:00;1.90;;;1.77;;
568;SDS011;269;48.884;9.192;2022-10-16T14:11:31;6.00;;;1.80;;
568;SDS011;269;48.884;9.192;2022-10-16T14:14:00;2.67;;;1.90;;
568;SDS011;269;48.884;9.192;2022-10-16T14:16:41;2.70;;;1.50;;
568;SDS011;269;48.884;9.192;2022-10-16T14:19:13;1.93;;;1.60;;
568;SDS011;269;48.884;9.192;2022-10-16T14:21:45;1.47;;;1.37;;
568;SDS011;269;48.884;9.192;2022-10-16T14:24:12;1.80;;;1.70;;
568;SDS011;269;48.884;9.192;2022-10-16T14:26:41;1.73;;;1.63;;
568;SDS011;269;48.884;9.192;2022-10-16T14:29:10;1.63;;;1.53;;
568;SDS011;269;48.884;9.192;2022-10-16T14:31:41;1.90;;;1.80;;
568;SDS011;269;48.884;9.192;2022-10-16T14:34:28;1.90;;;1.80;;
568;SDS011;269;48.884;9.192;2022-10-16T14:36:58;1.93;;;1.73;;
568;SDS011;269;48.884;9.192;2022-10-16T14:39:32;2.37;;;1.80;;
568;SDS011;269;48.884;9.192;2022-10-16T14:42:00;2.03;;;1.57;;
568;SDS011;269;48.884;9.192;2022-10-16T14:44:29;1.50;;;1.40;;
568;SDS011;269;48.884;9.192;2022-10-16T14:47:05;3.37;;;1.73;;
568;SDS011;269;48.884;9.192;2022-10-16T14:49:35;1.87;;;1.67;;
568;SDS011;269;48.884;9.192;2022-10-16T14:52:04;2.73;;;1.70;;
568;SDS011;269;48.884;9.192;2022-10-16T14:54:36;2.10;;;1.90;;
568;SDS011;269;48.884;9.192;2022-10-16T14:57:03;2.40;;;1.67;;
568;SDS011;269;48.884;9.192;2022-10-16T14:59:32;3.40;;;1.80;;
568;SDS011;269;48.884;9.192;2022-10-16T15:02:08;2.70;;;1.80;;
568;SDS011;269;48.884;9.192;2022-10-16T15:04:47;2.00;;;1.80;;
568;SDS011;269;48.884;9.192;2022-10-16T15:07:15;2.20;;;1.70;;
568;SDS011;269;48.884;9.192;2022-10-16T15:09:42;1.97;;;1.60;;
568;SDS011;269;48.884;9.192;2022-10-16T15:12:09;3.10;;;2.80;;
568;SDS011;269;48.884;9.192;2022-10-16T15:14:36;2.53;;;2.00;;
568;SDS011;269;48.884;9.192;2022-10-16T15:17:05;3.10;;;2.30;;
568;SDS011;269;48.884;9.192;2022-10-16T15:19:33;1.90;;;1.70;;
568;SDS011;269;48.884;9.192;2022-10-16T15:22:01;1.67;;;1.57;;
568;SDS011;269;48.884;9.192;2022-10-16T15:24:28;3.43;;;1.70;;
568;SDS011;269;48.884;9.192;2022-10-16T15:26:56;1.90;;;1.80;;
568;SDS011;269;48.884;9.192;2022-10-16T15:29:23;3.10;;;1.60;;
568;SDS011;269;48.884;9.192;2022-10-16T15:31:50;1.97;;;1.73;;
568;SDS011;269;48.884;9.192;2022-10-16T15:34:19;6.20;;;1.97;;
568;SDS011;269;48.884;9.192;2022-10-16T15:36:46;2.60;;;1.80;;
568;SDS011;269;48.884;9.192;2022-10-16T15:39:14;1.97;;;1.87;;
568;SDS011;269;48.884;9.192;2022-10-16T15:41:42;2.63;;;1.80;;
568;SDS011;269;48.884;9.192;2022-10-16T15:44:13;2.13;;;1.63;;
568;SDS011;269;48.884;9.192;2022-10-16T15:46:40;3.40;;;1.70;;
568;SDS011;269;48.884;9.192;2022-10-16T15:49:07;1.70;;;1.60;;
568;SDS011;269;48.884;9.192;2022-10-16T15:51:39;2.50;;;1.67;;
568;SDS011;269;48.884;9.192;2022-10-16T15:54:07;2.57;;;1.60;;
568;SDS011;269;48.884;9.192;2022-10-16T15:56:34;2.20;;;1.60;;
568;SDS011;269;48.884;9.192;2022-10-16T15:59:02;1.60;;;1.50;;
568;SDS011;269;48.884;9.192;2022-10-16T16:01:31;2.17;;;1.50;;
568;SDS011;269;48.884;9.192;2022-10-16T16:03:59;2.20;;;1.73;;
568;SDS011;269;48.884;9.192;2022-10-16T16:06:26;3.17;;;1.53;;
568;SDS011;269;48.884;9.192;2022-10-16T16:08:56;1.73;;;1.47;;
568;SDS011;269;48.884;9.192;2022-10-16T16:11:25;3.23;;;2.00;;
568;SDS011;269;48.884;9.192;2022-10-16T16:13:52;2.43;;;2.03;;
568;SDS011;269;48.884;9.192;2022-10-16T16:16:20;2.73;;;1.70;;
568;SDS011;269;48.884;9.192;2022-10-16T16:18:47;3.80;;;1.50;;
568;SDS011;269;48.884;9.192;2022-10-16T16:21:15;1.57;;;1.40;;